Time;durP1;ratioP1;P1;durP2;ratioP2;P2;SDS_P1;SDS_P2;PMS_P1;PMS_P2;Temp;Humidity;BMP_temperature;BMP_pressure;BME280_temperature;BME280_humidity;BME280_pressure;Samples;Min_cycle;Max_cycle;Signal;HPM_P1;HPM_P2
2021/04/04 00:01:09;;;;;;;14.67;9.37;;;;;;;;;;5054376;28;20176;-80
2021/04/04 00:03:34;;;;;;;19.93;11.73;;;;;;;;;;5053826;28;20658;-79
2021/04/04 00:05:59;;;;;;;19.93;13.33;;;;;;;;;;5054089;28;20179;-80
2021/04/04 00:08:25;;;;;;;32.17;16.37;;;;;;;;;;5054377;28;20167;-80
2021/04/04 00:10:50;;;;;;;34.57;18.97;;;;;;;;;;5054267;28;20250;-79
2021/04/04 00:13:16;;;;;;;33.37;19.63;;;;;;;;;;5054291;28;20604;-80
2021/04/04 00:15:41;;;;;;;43.73;24.63;;;;;;;;;;5053825;28;20206;-80
2021/04/04 00:18:07;;;;;;;38.80;21.97;;;;;;;;;;5054249;28;20519;-80
2021/04/04 00:20:33;;;;;;;33.70;18.67;;;;;;;;;;5053859;28;20654;-80
2021/04/04 00:22:58;;;;;;;37.90;21.17;;;;;;;;;;5052593;28;20523;-80
2021/04/04 00:25:23;;;;;;;36.70;21.67;;;;;;;;;;5054060;28;20179;-80
2021/04/04 00:27:49;;;;;;;67.17;33.27;;;;;;;;;;5053799;28;20167;-80
2021/04/04 00:30:16;;;;;;;54.00;31.90;;;;;;;;;;5054000;28;20259;-79
2021/04/04 00:32:41;;;;;;;59.43;33.70;;;;;;;;;;5054451;28;20176;-80
2021/04/04 00:35:10;;;;;;;53.57;29.37;;;;;;;;;;5052356;28;20199;-79
2021/04/04 00:37:37;;;;;;;47.67;24.13;;;;;;;;;;5053769;28;20175;-80
2021/04/04 00:40:05;;;;;;;44.10;24.77;;;;;;;;;;5053837;28;20251;-80
2021/04/04 00:42:31;;;;;;;31.97;19.40;;;;;;;;;;5055552;28;20183;-79
2021/04/04 00:44:56;;;;;;;41.10;21.57;;;;;;;;;;5058122;28;20184;-79
2021/04/04 00:47:21;;;;;;;49.70;25.53;;;;;;;;;;5057757;28;20172;-79
2021/04/04 00:49:46;;;;;;;31.70;16.87;;;;;;;;;;5057926;28;20565;-80
2021/04/04 00:52:12;;;;;;;41.93;21.97;;;;;;;;;;5057697;28;20175;-80
2021/04/04 00:54:38;;;;;;;33.37;18.70;;;;;;;;;;5057233;28;20187;-79
2021/04/04 00:57:03;;;;;;;34.53;18.07;;;;;;;;;;5057797;28;20172;-80
2021/04/04 00:59:28;;;;;;;45.97;20.90;;;;;;;;;;5057277;28;20302;-79
2021/04/04 01:01:54;;;;;;;51.90;23.33;;;;;;;;;;5057537;28;20655;-80
2021/04/04 01:04:19;;;;;;;59.10;29.87;;;;;;;;;;5057470;28;20176;-80
2021/04/04 01:06:44;;;;;;;75.63;29.90;;;;;;;;;;5057760;28;20168;-79
2021/04/04 01:09:10;;;;;;;55.57;25.37;;;;;;;;;;5057667;28;20171;-79
2021/04/04 01:11:52;;;;;;;55.30;24.23;;;;;;;;;;5056100;28;20198;-80
2021/04/04 01:14:29;;;;;;;46.07;21.57;;;;;;;;;;5057487;28;20647;-79
2021/04/04 01:16:57;;;;;;;59.00;23.03;;;;;;;;;;5055991;28;20169;-79
2021/04/04 01:19:30;;;;;;;50.30;20.93;;;;;;;;;;5056941;28;20684;-79
2021/04/04 01:22:03;;;;;;;62.17;23.63;;;;;;;;;;5056521;28;20176;-79
2021/04/04 01:24:29;;;;;;;65.97;26.07;;;;;;;;;;5056155;28;20521;-79
2021/04/04 01:27:12;;;;;;;85.57;31.17;;;;;;;;;;5057144;28;20160;-79
2021/04/04 01:29:38;;;;;;;100.47;34.93;;;;;;;;;;5057071;28;20347;-80
2021/04/04 01:32:04;;;;;;;74.57;26.87;;;;;;;;;;5057089;28;20194;-80
2021/04/04 01:34:30;;;;;;;131.70;40.87;;;;;;;;;;5056551;28;20199;-79
2021/04/04 01:37:04;;;;;;;89.50;32.27;;;;;;;;;;5055710;28;20232;-80
2021/04/04 01:39:33;;;;;;;116.47;39.53;;;;;;;;;;5055476;28;20683;-79
2021/04/04 01:41:59;;;;;;;79.50;28.73;;;;;;;;;;5056476;28;20259;-80
2021/04/04 01:44:25;;;;;;;228.23;70.23;;;;;;;;;;5055420;28;20267;-79
2021/04/04 01:46:51;;;;;;;89.37;38.90;;;;;;;;;;5056356;28;20621;-80
2021/04/04 01:49:17;;;;;;;53.27;27.00;;;;;;;;;;5056915;28;20164;-80
2021/04/04 01:51:43;;;;;;;28.17;14.47;;;;;;;;;;5056656;28;20203;-80
2021/04/04 01:54:09;;;;;;;19.43;10.57;;;;;;;;;;5055442;28;20619;-80
2021/04/04 01:56:34;;;;;;;31.93;20.43;;;;;;;;;;5055309;28;20203;-79
2021/04/04 01:59:00;;;;;;;23.97;16.90;;;;;;;;;;5056119;28;20168;-80
2021/04/04 02:01:27;;;;;;;17.27;12.43;;;;;;;;;;5056026;28;20220;-79
2021/04/04 02:03:57;;;;;;;16.37;10.83;;;;;;;;;;5056360;28;20171;-80
2021/04/04 02:06:22;;;;;;;22.33;9.53;;;;;;;;;;5056333;28;20198;-79
2021/04/04 02:08:48;;;;;;;30.77;10.80;;;;;;;;;;5054696;28;20172;-80
2021/04/04 02:11:16;;;;;;;47.00;13.30;;;;;;;;;;5054870;28;20245;-80
2021/04/04 02:13:43;;;;;;;41.20;20.50;;;;;;;;;;5055921;28;20219;-80
2021/04/04 02:16:08;;;;;;;20.67;12.80;;;;;;;;;;5055960;28;20534;-80
2021/04/04 02:18:34;;;;;;;15.00;9.63;;;;;;;;;;5056193;28;20271;-80
2021/04/04 02:21:00;;;;;;;11.80;8.10;;;;;;;;;;5056574;28;20510;-80
2021/04/04 02:23:27;;;;;;;13.13;7.87;;;;;;;;;;5054746;28;20172;-80
2021/04/04 02:25:56;;;;;;;13.53;7.20;;;;;;;;;;5054686;28;20182;-80
2021/04/04 02:28:22;;;;;;;10.47;6.90;;;;;;;;;;5055902;28;20650;-79
2021/04/04 02:30:48;;;;;;;10.07;6.37;;;;;;;;;;5054519;28;20175;-80
2021/04/04 02:33:19;;;;;;;10.07;6.37;;;;;;;;;;5055756;28;20172;-80
2021/04/04 02:35:45;;;;;;;11.13;6.50;;;;;;;;;;5054406;28;20568;-80
2021/04/04 02:38:16;;;;;;;7.93;6.33;;;;;;;;;;5056025;28;20176;-80
2021/04/04 02:40:42;;;;;;;12.73;7.17;;;;;;;;;;5056316;28;20225;-80
2021/04/04 02:43:08;;;;;;;9.73;6.37;;;;;;;;;;5054372;28;20219;-80
2021/04/04 02:45:36;;;;;;;10.23;5.83;;;;;;;;;;5054256;28;20279;-80
2021/04/04 02:48:03;;;;;;;11.03;5.70;;;;;;;;;;5053984;28;20183;-80
2021/04/04 02:50:30;;;;;;;7.43;5.47;;;;;;;;;;5054143;28;20261;-79
2021/04/04 02:52:58;;;;;;;10.10;5.67;;;;;;;;;;5055380;28;20171;-80
2021/04/04 02:55:24;;;;;;;10.90;5.57;;;;;;;;;;5055264;28;20234;-80
2021/04/04 02:57:52;;;;;;;11.10;5.70;;;;;;;;;;5055237;28;20176;-79
2021/04/04 03:00:18;;;;;;;11.10;5.60;;;;;;;;;;5055319;28;20176;-80
2021/04/04 03:02:43;;;;;;;8.00;5.63;;;;;;;;;;5055293;28;20238;-80
2021/04/04 03:05:09;;;;;;;8.93;5.40;;;;;;;;;;5055478;28;20178;-80
2021/04/04 03:07:35;;;;;;;11.17;5.80;;;;;;;;;;5053943;28;20572;-79
2021/04/04 03:10:02;;;;;;;9.40;5.37;;;;;;;;;;5055406;28;20172;-80
2021/04/04 03:12:28;;;;;;;8.33;5.50;;;;;;;;;;5054966;28;20276;-80
2021/04/04 03:14:56;;;;;;;10.73;5.60;;;;;;;;;;5054589;28;20207;-79
2021/04/04 03:17:22;;;;;;;10.40;5.97;;;;;;;;;;5054239;28;20203;-80
2021/04/04 03:19:48;;;;;;;10.17;6.20;;;;;;;;;;5054668;28;20254;-80
2021/04/04 03:22:14;;;;;;;11.80;5.80;;;;;;;;;;5055487;28;20176;-80
2021/04/04 03:24:40;;;;;;;9.27;5.77;;;;;;;;;;5054400;28;20258;-80
2021/04/04 03:27:06;;;;;;;9.03;5.43;;;;;;;;;;5054684;28;20172;-82
2021/04/04 03:29:32;;;;;;;9.43;6.03;;;;;;;;;;5053792;28;20241;-80
2021/04/04 03:31:58;;;;;;;9.80;5.97;;;;;;;;;;5054940;28;20172;-80
2021/04/04 03:34:24;;;;;;;8.20;6.33;;;;;;;;;;5054261;28;20684;-80
2021/04/04 03:36:49;;;;;;;10.17;6.30;;;;;;;;;;5054868;28;20175;-79
2021/04/04 03:39:15;;;;;;;12.10;6.90;;;;;;;;;;5053219;28;20253;-80
2021/04/04 03:41:41;;;;;;;12.57;7.00;;;;;;;;;;5053188;28;20179;-82
2021/04/04 03:44:07;;;;;;;10.30;7.10;;;;;;;;;;5054744;28;20183;-80
2021/04/04 03:46:33;;;;;;;10.93;6.87;;;;;;;;;;5054336;28;20176;-80
2021/04/04 03:49:00;;;;;;;12.60;7.77;;;;;;;;;;5054663;28;20258;-80
2021/04/04 03:51:26;;;;;;;10.57;6.73;;;;;;;;;;5054408;28;20299;-80
2021/04/04 03:53:52;;;;;;;10.80;7.67;;;;;;;;;;5054076;28;20195;-80
2021/04/04 03:56:25;;;;;;;12.67;8.47;;;;;;;;;;5054309;28;20167;-80
2021/04/04 03:58:51;;;;;;;17.17;9.20;;;;;;;;;;5052974;28;20622;-80
2021/04/04 04:01:21;;;;;;;14.33;8.43;;;;;;;;;;5053820;28;20168;-80
2021/04/04 04:03:47;;;;;;;11.93;7.60;;;;;;;;;;5053930;28;20195;-80
2021/04/04 04:06:13;;;;;;;14.57;8.20;;;;;;;;;;5053919;28;20229;-80
2021/04/04 04:08:39;;;;;;;11.53;8.40;;;;;;;;;;5052862;28;20603;-80
2021/04/04 04:11:05;;;;;;;14.03;8.80;;;;;;;;;;5054126;28;20176;-80
2021/04/04 04:13:30;;;;;;;11.60;9.60;;;;;;;;;;5051927;28;20277;-80
2021/04/04 04:15:56;;;;;;;14.20;9.47;;;;;;;;;;5053797;28;20180;-80
2021/04/04 04:18:22;;;;;;;25.70;16.10;;;;;;;;;;5053893;28;20235;-80
2021/04/04 04:20:48;;;;;;;13.57;9.47;;;;;;;;;;5054284;28;20566;-80
2021/04/04 04:23:13;;;;;;;12.80;8.17;;;;;;;;;;5053462;28;20176;-80
2021/04/04 04:25:40;;;;;;;17.80;11.27;;;;;;;;;;5053636;28;20654;-80
2021/04/04 04:28:08;;;;;;;18.50;11.50;;;;;;;;;;5052347;28;20182;-80
2021/04/04 04:30:33;;;;;;;17.70;11.27;;;;;;;;;;5052915;28;20492;-80
2021/04/04 04:33:00;;;;;;;16.10;10.13;;;;;;;;;;5052365;28;20175;-80
2021/04/04 04:35:26;;;;;;;19.40;13.83;;;;;;;;;;5054053;28;20188;-80
2021/04/04 04:37:52;;;;;;;25.87;13.80;;;;;;;;;;5053494;28;20179;-80
2021/04/04 04:40:18;;;;;;;14.90;9.37;;;;;;;;;;5052278;28;20183;-80
2021/04/04 04:42:46;;;;;;;16.90;9.17;;;;;;;;;;5053769;28;20508;-80
2021/04/04 04:45:15;;;;;;;11.13;8.07;;;;;;;;;;5053504;28;20269;-80
2021/04/04 04:47:41;;;;;;;15.73;8.57;;;;;;;;;;5053740;28;20512;-80
2021/04/04 04:50:08;;;;;;;12.30;8.50;;;;;;;;;;5053470;28;20623;-80
2021/04/04 04:52:33;;;;;;;14.70;7.97;;;;;;;;;;5053364;28;20198;-80
2021/04/04 04:54:59;;;;;;;13.47;8.67;;;;;;;;;;5053501;28;20287;-80
2021/04/04 04:57:25;;;;;;;11.13;7.43;;;;;;;;;;5052140;28;20179;-80
2021/04/04 04:59:50;;;;;;;11.97;7.93;;;;;;;;;;5052635;28;20175;-80
2021/04/04 05:02:16;;;;;;;14.97;8.90;;;;;;;;;;5053540;28;20219;-80
2021/04/04 05:04:44;;;;;;;15.73;8.90;;;;;;;;;;5053382;28;20176;-80
2021/04/04 05:07:10;;;;;;;12.97;7.97;;;;;;;;;;5052578;28;20180;-80
2021/04/04 05:09:36;;;;;;;13.27;8.20;;;;;;;;;;5053890;28;20748;-80
2021/04/04 05:12:02;;;;;;;13.93;9.23;;;;;;;;;;5051916;28;20307;-80
2021/04/04 05:14:27;;;;;;;14.83;8.97;;;;;;;;;;5053471;28;20661;-80
2021/04/04 05:16:53;;;;;;;15.80;9.37;;;;;;;;;;5053177;28;20172;-80
2021/04/04 05:19:18;;;;;;;14.63;9.13;;;;;;;;;;5053338;28;20262;-80
2021/04/04 05:21:44;;;;;;;12.70;8.20;;;;;;;;;;5053125;28;20168;-80
2021/04/04 05:24:10;;;;;;;12.83;8.40;;;;;;;;;;5053077;28;20509;-80
2021/04/04 05:26:40;;;;;;;12.63;8.30;;;;;;;;;;5053104;28;20618;-80
2021/04/04 05:29:10;;;;;;;12.57;8.00;;;;;;;;;;5055947;28;20172;-80
2021/04/04 05:31:48;;;;;;;13.17;8.10;;;;;;;;;;5056462;28;20642;-80
2021/04/04 05:34:14;;;;;;;10.23;8.17;;;;;;;;;;5056945;28;20591;-80
2021/04/04 05:36:46;;;;;;;11.70;7.97;;;;;;;;;;5056672;28;20180;-80
2021/04/04 05:39:12;;;;;;;11.13;6.90;;;;;;;;;;5056895;28;20175;-80
2021/04/04 05:41:38;;;;;;;9.43;6.83;;;;;;;;;;5056588;28;20172;-80
2021/04/04 05:44:05;;;;;;;11.70;7.63;;;;;;;;;;5055756;28;20502;-80
2021/04/04 05:46:34;;;;;;;13.03;8.50;;;;;;;;;;5055323;28;20207;-80
2021/04/04 05:49:07;;;;;;;9.20;7.33;;;;;;;;;;5056311;28;20176;-80
2021/04/04 05:51:38;;;;;;;15.47;9.07;;;;;;;;;;5057062;28;20617;-80
2021/04/04 05:54:22;;;;;;;15.97;9.23;;;;;;;;;;5056697;28;20206;-80
2021/04/04 05:56:49;;;;;;;13.40;7.00;;;;;;;;;;5055237;28;20610;-80
2021/04/04 05:59:19;;;;;;;8.63;7.13;;;;;;;;;;5056657;28;20171;-80
2021/04/04 06:01:51;;;;;;;8.17;6.77;;;;;;;;;;5054966;28;20206;-80
2021/04/04 06:04:19;;;;;;;10.50;6.70;;;;;;;;;;5056172;28;20237;-80
2021/04/04 06:06:47;;;;;;;7.97;6.40;;;;;;;;;;5054898;28;20584;-80
2021/04/04 06:09:27;;;;;;;10.50;5.90;;;;;;;;;;5054814;28;20647;-80
2021/04/04 06:11:56;;;;;;;10.90;7.60;;;;;;;;;;5056384;28;20172;-81
2021/04/04 06:14:21;;;;;;;15.40;9.23;;;;;;;;;;5056528;28;20200;-80
2021/04/04 06:16:49;;;;;;;16.23;10.17;;;;;;;;;;5056325;28;20171;-80
2021/04/04 06:19:18;;;;;;;24.97;17.63;;;;;;;;;;5055344;28;20183;-80
2021/04/04 06:21:46;;;;;;;20.40;13.50;;;;;;;;;;5054602;28;20195;-80
2021/04/04 06:24:11;;;;;;;13.27;8.43;;;;;;;;;;5055845;28;20215;-82
2021/04/04 06:26:38;;;;;;;29.93;13.57;;;;;;;;;;5055790;28;20196;-80
2021/04/04 06:29:16;;;;;;;31.27;16.20;;;;;;;;;;5054462;28;20179;-80
2021/04/04 06:31:41;;;;;;;15.67;11.67;;;;;;;;;;5055676;28;20298;-80
2021/04/04 06:34:13;;;;;;;19.67;11.87;;;;;;;;;;5055320;28;20290;-80
2021/04/04 06:36:42;;;;;;;20.93;11.23;;;;;;;;;;5056284;28;20177;-80
2021/04/04 06:39:08;;;;;;;17.63;12.03;;;;;;;;;;5055124;28;20168;-80
2021/04/04 06:41:39;;;;;;;17.33;13.30;;;;;;;;;;5055500;28;20175;-80
2021/04/04 06:44:16;;;;;;;9.17;7.73;;;;;;;;;;5054244;28;20271;-80
2021/04/04 06:46:47;;;;;;;14.53;8.37;;;;;;;;;;5054640;28;20250;-80
2021/04/04 06:49:13;;;;;;;16.50;9.43;;;;;;;;;;5054110;28;20254;-80
2021/04/04 06:51:38;;;;;;;13.00;7.83;;;;;;;;;;5054110;28;20168;-80
2021/04/04 06:54:22;;;;;;;10.80;8.40;;;;;;;;;;5053952;28;20746;-80
2021/04/04 06:57:06;;;;;;;11.47;8.37;;;;;;;;;;5055706;28;20249;-80
2021/04/04 06:59:31;;;;;;;9.23;7.37;;;;;;;;;;5053911;28;20176;-80
2021/04/04 07:02:01;;;;;;;14.07;8.73;;;;;;;;;;5054043;28;20195;-80
2021/04/04 07:04:29;;;;;;;8.07;6.73;;;;;;;;;;5054370;28;20180;-80
2021/04/04 07:07:12;;;;;;;9.43;6.90;;;;;;;;;;5055046;28;20180;-81
2021/04/04 07:10:03;;;;;;;10.93;7.20;;;;;;;;;;5053674;28;20180;-80
2021/04/04 07:12:51;;;;;;;7.40;6.70;;;;;;;;;;5054879;28;20235;-80
2021/04/04 07:15:32;;;;;;;9.33;7.33;;;;;;;;;;5054187;28;20294;-80
2021/04/04 07:18:15;;;;;;;11.87;8.93;;;;;;;;;;5054490;28;20214;-80
2021/04/04 07:21:00;;;;;;;11.37;8.20;;;;;;;;;;5053606;28;20187;-80
2021/04/04 07:23:28;;;;;;;8.50;7.10;;;;;;;;;;5054546;28;20610;-80
2021/04/04 07:25:59;;;;;;;13.67;10.30;;;;;;;;;;5054791;28;20179;-81
2021/04/04 07:28:24;;;;;;;12.23;8.60;;;;;;;;;;5054792;28;20172;-80
2021/04/04 07:31:00;;;;;;;9.73;7.27;;;;;;;;;;5055306;28;20167;-80
2021/04/04 07:33:29;;;;;;;8.10;6.70;;;;;;;;;;5054493;28;20611;-80
2021/04/04 07:36:04;;;;;;;9.40;7.90;;;;;;;;;;5053266;28;20514;-80
2021/04/04 07:38:55;;;;;;;10.90;8.40;;;;;;;;;;5054711;28;20198;-80
2021/04/04 07:41:23;;;;;;;11.80;8.50;;;;;;;;;;5054634;28;20194;-80
2021/04/04 07:44:02;;;;;;;15.83;9.80;;;;;;;;;;5054632;28;20257;-80
2021/04/04 07:46:30;;;;;;;11.50;7.40;;;;;;;;;;5054237;28;20258;-80
2021/04/04 07:49:01;;;;;;;12.37;8.50;;;;;;;;;;5054486;28;20168;-80
2021/04/04 07:51:34;;;;;;;11.87;7.67;;;;;;;;;;5052123;28;20211;-80
2021/04/04 07:54:01;;;;;;;9.23;7.57;;;;;;;;;;5054152;28;20202;-80
2021/04/04 07:56:27;;;;;;;12.30;8.47;;;;;;;;;;5054129;28;20610;-80
2021/04/04 07:58:52;;;;;;;14.07;10.37;;;;;;;;;;5052773;28;20186;-80
2021/04/04 08:01:20;;;;;;;13.13;9.23;;;;;;;;;;5054563;28;20255;-81
2021/04/04 08:03:49;;;;;;;19.63;12.47;;;;;;;;;;5053916;28;20192;-81
2021/04/04 08:06:15;;;;;;;12.27;8.80;;;;;;;;;;5054083;28;20203;-80
2021/04/04 08:08:48;;;;;;;14.10;9.67;;;;;;;;;;5054050;28;20172;-80
2021/04/04 08:11:17;;;;;;;10.80;7.60;;;;;;;;;;5053405;28;20172;-81
2021/04/04 08:13:55;;;;;;;8.53;6.77;;;;;;;;;;5052482;28;20318;-81
2021/04/04 08:16:22;;;;;;;7.40;6.53;;;;;;;;;;5053716;28;20515;-81
2021/04/04 08:18:48;;;;;;;8.30;7.40;;;;;;;;;;5053756;28;20264;-81
2021/04/04 08:21:15;;;;;;;10.43;7.40;;;;;;;;;;5053661;28;20631;-81
2021/04/04 08:23:59;;;;;;;8.30;6.83;;;;;;;;;;5053825;28;20187;-81
2021/04/04 08:26:26;;;;;;;7.30;5.57;;;;;;;;;;5054430;28;20176;-81
2021/04/04 08:28:56;;;;;;;12.53;6.20;;;;;;;;;;5053606;28;20172;-81
2021/04/04 08:31:27;;;;;;;8.77;5.87;;;;;;;;;;5054092;28;20521;-81
2021/04/04 08:33:55;;;;;;;7.63;6.77;;;;;;;;;;5053461;28;20663;-81
2021/04/04 08:36:22;;;;;;;8.80;6.83;;;;;;;;;;5054018;28;20171;-81
2021/04/04 08:38:48;;;;;;;7.10;6.40;;;;;;;;;;5053060;28;20191;-81
2021/04/04 08:41:16;;;;;;;7.53;6.07;;;;;;;;;;5053822;28;20194;-81
2021/04/04 08:43:46;;;;;;;8.40;6.90;;;;;;;;;;5053937;28;20168;-81
2021/04/04 08:46:12;;;;;;;7.40;6.40;;;;;;;;;;5052106;28;20259;-81
2021/04/04 08:48:39;;;;;;;9.50;7.20;;;;;;;;;;5052341;28;20274;-81
2021/04/04 08:51:07;;;;;;;8.03;6.77;;;;;;;;;;5053576;28;20168;-81
2021/04/04 08:53:36;;;;;;;7.00;6.30;;;;;;;;;;5053619;28;20198;-81
2021/04/04 08:56:02;;;;;;;6.67;5.97;;;;;;;;;;5053541;28;20184;-81
2021/04/04 08:58:45;;;;;;;7.00;6.07;;;;;;;;;;5053890;28;20313;-81
2021/04/04 09:01:30;;;;;;;7.63;6.53;;;;;;;;;;5053300;28;20171;-81
2021/04/04 09:03:57;;;;;;;7.87;6.97;;;;;;;;;;5055700;28;20584;-81
2021/04/04 09:06:23;;;;;;;7.07;6.27;;;;;;;;;;5057612;28;20251;-81
2021/04/04 09:08:49;;;;;;;8.83;7.07;;;;;;;;;;5057178;28;20698;-81
2021/04/04 09:11:15;;;;;;;10.27;7.87;;;;;;;;;;5057426;28;20172;-81
2021/04/04 09:13:41;;;;;;;8.80;7.00;;;;;;;;;;5057878;28;20272;-81
2021/04/04 09:16:08;;;;;;;9.40;5.87;;;;;;;;;;5056016;28;20258;-81
2021/04/04 09:18:33;;;;;;;6.00;5.40;;;;;;;;;;5057244;28;20247;-81
2021/04/04 09:21:06;;;;;;;6.57;5.30;;;;;;;;;;5057782;28;20253;-81
2021/04/04 09:23:32;;;;;;;6.40;5.07;;;;;;;;;;5057154;28;20168;-81
2021/04/04 09:25:58;;;;;;;6.33;5.00;;;;;;;;;;5056860;28;20649;-81
2021/04/04 09:28:28;;;;;;;5.93;4.90;;;;;;;;;;5057220;28;20160;-81
2021/04/04 09:30:53;;;;;;;5.80;5.20;;;;;;;;;;5056671;28;20172;-81
2021/04/04 09:33:20;;;;;;;5.73;5.13;;;;;;;;;;5056987;28;20492;-81
2021/04/04 09:35:53;;;;;;;6.90;5.67;;;;;;;;;;5056863;28;20195;-81
2021/04/04 09:38:19;;;;;;;5.40;4.90;;;;;;;;;;5055637;28;20230;-81
2021/04/04 09:40:45;;;;;;;5.90;4.93;;;;;;;;;;5057359;28;20168;-81
2021/04/04 09:43:12;;;;;;;6.67;5.13;;;;;;;;;;5055379;28;20662;-81
2021/04/04 09:45:38;;;;;;;6.57;4.90;;;;;;;;;;5055448;28;20172;-81
2021/04/04 09:48:19;;;;;;;6.17;4.70;;;;;;;;;;5055368;28;20226;-81
2021/04/04 09:50:45;;;;;;;6.60;5.47;;;;;;;;;;5056926;28;20176;-81
2021/04/04 09:53:10;;;;;;;6.10;4.47;;;;;;;;;;5056851;28;20490;-81
2021/04/04 09:55:36;;;;;;;4.90;4.40;;;;;;;;;;5056663;28;20202;-81
2021/04/04 09:58:02;;;;;;;4.73;4.27;;;;;;;;;;5056692;28;20172;-81
2021/04/04 10:00:29;;;;;;;7.47;4.60;;;;;;;;;;5056437;28;20173;-81
2021/04/04 10:02:56;;;;;;;7.10;5.23;;;;;;;;;;5055970;28;20212;-81
2021/04/04 10:05:29;;;;;;;7.17;5.50;;;;;;;;;;5055041;28;20538;-81
2021/04/04 10:08:06;;;;;;;4.80;3.70;;;;;;;;;;5056287;28;20168;-81
2021/04/04 10:10:31;;;;;;;3.80;3.40;;;;;;;;;;5056479;28;20186;-81
2021/04/04 10:12:58;;;;;;;5.00;4.33;;;;;;;;;;5056464;28;20289;-81
2021/04/04 10:15:23;;;;;;;5.20;4.70;;;;;;;;;;5055374;28;20200;-81
2021/04/04 10:17:58;;;;;;;8.23;6.03;;;;;;;;;;5056422;28;20225;-81
2021/04/04 10:20:32;;;;;;;5.10;4.60;;;;;;;;;;5055771;28;20171;-81
2021/04/04 10:22:58;;;;;;;5.13;4.23;;;;;;;;;;5056249;28;20676;-81
2021/04/04 10:25:23;;;;;;;16.17;12.67;;;;;;;;;;5054843;28;20179;-81
2021/04/04 10:27:59;;;;;;;5.10;4.60;;;;;;;;;;5056203;28;20168;-81
2021/04/04 10:30:27;;;;;;;8.27;7.47;;;;;;;;;;5056138;28;20201;-81
2021/04/04 10:32:53;;;;;;;8.70;6.30;;;;;;;;;;5056109;28;20176;-81
2021/04/04 10:35:27;;;;;;;5.93;4.73;;;;;;;;;;5055422;28;20720;-81
2021/04/04 10:38:00;;;;;;;6.80;5.10;;;;;;;;;;5055757;28;20601;-81
2021/04/04 10:40:38;;;;;;;4.00;3.67;;;;;;;;;;5055848;28;20158;-81
2021/04/04 10:43:03;;;;;;;5.40;4.17;;;;;;;;;;5055733;28;20195;-81
2021/04/04 10:45:29;;;;;;;4.70;4.20;;;;;;;;;;5056211;28;20195;-81
2021/04/04 10:48:03;;;;;;;4.27;3.87;;;;;;;;;;5055303;28;20172;-81
2021/04/04 10:50:28;;;;;;;6.53;5.07;;;;;;;;;;5054250;28;20220;-81
2021/04/04 10:52:54;;;;;;;14.97;10.50;;;;;;;;;;5055483;28;20168;-81
2021/04/04 10:55:20;;;;;;;7.73;5.77;;;;;;;;;;5055386;28;20203;-81
2021/04/04 10:57:45;;;;;;;7.33;6.03;;;;;;;;;;5055691;28;20261;-81
2021/04/04 11:00:11;;;;;;;6.47;5.27;;;;;;;;;;5055053;28;20529;-81
2021/04/04 11:02:37;;;;;;;5.23;4.60;;;;;;;;;;5055573;28;20188;-81
2021/04/04 11:05:03;;;;;;;4.63;3.97;;;;;;;;;;5053933;28;20179;-81
2021/04/04 11:07:29;;;;;;;3.50;3.20;;;;;;;;;;5055303;28;20182;-81
2021/04/04 11:09:55;;;;;;;4.00;3.33;;;;;;;;;;5055457;28;20179;-81
2021/04/04 11:12:20;;;;;;;4.90;4.40;;;;;;;;;;5055431;28;20238;-81
2021/04/04 11:14:47;;;;;;;4.40;3.20;;;;;;;;;;5054012;28;20651;-81
2021/04/04 11:17:14;;;;;;;4.80;4.30;;;;;;;;;;5054989;28;20206;-81
2021/04/04 11:19:44;;;;;;;6.80;4.73;;;;;;;;;;5055139;28;20526;-81
2021/04/04 11:22:12;;;;;;;5.20;4.70;;;;;;;;;;5053594;28;20270;-81
2021/04/04 11:24:37;;;;;;;6.07;4.27;;;;;;;;;;5055394;28;20176;-81
2021/04/04 11:27:04;;;;;;;8.03;5.87;;;;;;;;;;5053572;28;20183;-81
2021/04/04 11:29:42;;;;;;;7.23;5.70;;;;;;;;;;5055090;28;20174;-81
2021/04/04 11:32:17;;;;;;;6.60;4.93;;;;;;;;;;5054841;28;20160;-81
2021/04/04 11:34:56;;;;;;;4.63;4.13;;;;;;;;;;5054475;28;20554;-81
2021/04/04 11:37:22;;;;;;;4.53;4.13;;;;;;;;;;5054619;28;20709;-81
2021/04/04 11:40:06;;;;;;;6.47;5.07;;;;;;;;;;5054519;28;20176;-81
2021/04/04 11:42:31;;;;;;;9.00;6.70;;;;;;;;;;5054558;28;20175;-81
2021/04/04 11:44:56;;;;;;;5.90;5.07;;;;;;;;;;5054563;28;20171;-81
2021/04/04 11:47:22;;;;;;;7.33;5.10;;;;;;;;;;5053409;28;20527;-81
2021/04/04 11:49:49;;;;;;;7.23;5.40;;;;;;;;;;5053094;28;20508;-81
2021/04/04 11:52:17;;;;;;;4.13;3.40;;;;;;;;;;5054366;28;20171;-81
2021/04/04 11:54:44;;;;;;;4.23;3.83;;;;;;;;;;5053563;28;20196;-81
2021/04/04 11:57:09;;;;;;;4.10;2.97;;;;;;;;;;5053086;28;20581;-81
2021/04/04 11:59:34;;;;;;;5.53;4.57;;;;;;;;;;5053944;28;20168;-81
2021/04/04 12:02:00;;;;;;;4.83;4.37;;;;;;;;;;5054724;28;20263;-81
2021/04/04 12:04:32;;;;;;;6.17;4.07;;;;;;;;;;5054691;28;20226;-81
2021/04/04 12:07:04;;;;;;;5.00;4.17;;;;;;;;;;5054689;28;20156;-81
2021/04/04 12:09:30;;;;;;;3.93;3.40;;;;;;;;;;5054611;28;20168;-82
2021/04/04 12:11:55;;;;;;;5.47;4.20;;;;;;;;;;5053903;28;20248;-82
2021/04/04 12:14:21;;;;;;;4.87;4.37;;;;;;;;;;5054342;28;20513;-81
2021/04/04 12:16:47;;;;;;;5.07;4.57;;;;;;;;;;5054257;28;20172;-81
2021/04/04 12:19:12;;;;;;;3.53;3.23;;;;;;;;;;5054223;28;20183;-81
2021/04/04 12:21:48;;;;;;;3.30;3.00;;;;;;;;;;5052660;28;20171;-81
2021/04/04 12:24:13;;;;;;;3.83;3.37;;;;;;;;;;5054196;28;20168;-81
2021/04/04 12:26:38;;;;;;;2.90;2.70;;;;;;;;;;5054036;28;20175;-81
2021/04/04 12:29:03;;;;;;;3.47;2.80;;;;;;;;;;5053717;28;20175;-81
2021/04/04 12:31:29;;;;;;;3.37;3.07;;;;;;;;;;5054318;28;20549;-81
2021/04/04 12:33:57;;;;;;;3.03;2.70;;;;;;;;;;5053635;28;20567;-82
2021/04/04 12:36:22;;;;;;;3.40;3.10;;;;;;;;;;5052889;28;20176;-81
2021/04/04 12:38:50;;;;;;;2.87;2.60;;;;;;;;;;5053217;28;20493;-81
2021/04/04 12:41:15;;;;;;;5.20;4.40;;;;;;;;;;5052615;28;20171;-82
2021/04/04 12:43:42;;;;;;;3.57;3.10;;;;;;;;;;5053805;28;20168;-82
2021/04/04 12:46:10;;;;;;;3.60;2.50;;;;;;;;;;5052866;28;20629;-82
2021/04/04 12:48:39;;;;;;;3.23;2.90;;;;;;;;;;5054358;28;20598;-82
2021/04/04 12:51:04;;;;;;;3.20;2.50;;;;;;;;;;5053569;28;20176;-82
2021/04/04 12:53:31;;;;;;;4.47;4.07;;;;;;;;;;5053645;28;20225;-82
2021/04/04 12:55:56;;;;;;;4.30;3.90;;;;;;;;;;5053327;28;20200;-81
2021/04/04 12:58:43;;;;;;;4.70;4.13;;;;;;;;;;5053727;28;20172;-82
2021/04/04 13:01:13;;;;;;;4.10;3.30;;;;;;;;;;5052211;28;20168;-82
2021/04/04 13:03:39;;;;;;;4.57;4.00;;;;;;;;;;5053398;28;20227;-82
2021/04/04 13:06:05;;;;;;;3.40;3.10;;;;;;;;;;5053562;28;20248;-81
2021/04/04 13:08:32;;;;;;;3.80;3.50;;;;;;;;;;5053780;28;20237;-82
2021/04/04 13:10:58;;;;;;;5.10;4.60;;;;;;;;;;5053646;28;20673;-82
2021/04/04 13:13:28;;;;;;;4.87;3.90;;;;;;;;;;5053759;28;20538;-82
2021/04/04 13:16:00;;;;;;;3.50;3.20;;;;;;;;;;5053039;28;20196;-82
2021/04/04 13:18:39;;;;;;;4.70;4.00;;;;;;;;;;5054135;28;20272;-81
2021/04/04 13:21:13;;;;;;;8.40;7.50;;;;;;;;;;5051990;28;20180;-82
2021/04/04 13:23:39;;;;;;;29.87;14.37;;;;;;;;;;5052080;28;20175;-82
2021/04/04 13:26:06;;;;;;;7.10;4.70;;;;;;;;;;5053455;28;20233;-82
2021/04/04 13:28:33;;;;;;;4.90;4.37;;;;;;;;;;5054028;28;20619;-82
2021/04/04 13:31:28;;;;;;;4.90;4.40;;;;;;;;;;5053132;28;20249;-81
2021/04/04 13:34:04;;;;;;;3.97;3.53;;;;;;;;;;5046672;28;20188;-82
2021/04/04 13:36:30;;;;;;;4.03;3.50;;;;;;;;;;5051857;28;20182;-82
2021/04/04 13:38:56;;;;;;;5.97;5.47;;;;;;;;;;5052803;28;20172;-82
2021/04/04 13:41:22;;;;;;;6.10;4.93;;;;;;;;;;5051784;28;20171;-81
2021/04/04 13:43:48;;;;;;;4.37;3.97;;;;;;;;;;5052593;28;20508;-81
2021/04/04 13:46:46;;;;;;;5.17;4.40;;;;;;;;;;5051782;28;20196;-82
2021/04/04 13:49:12;;;;;;;24.33;15.23;;;;;;;;;;5051368;28;20180;-81
2021/04/04 13:51:39;;;;;;;6.80;6.03;;;;;;;;;;5056801;28;20176;-82
2021/04/04 13:54:08;;;;;;;4.90;4.40;;;;;;;;;;5056803;28;20168;-82
2021/04/04 13:56:52;;;;;;;4.57;3.97;;;;;;;;;;5055283;28;20190;-82
2021/04/04 13:59:19;;;;;;;4.83;4.30;;;;;;;;;;5056563;28;20234;-82
2021/04/04 14:01:49;;;;;;;33.67;14.93;;;;;;;;;;5056380;28;20176;-81
2021/04/04 14:04:15;;;;;;;8.03;6.33;;;;;;;;;;5056610;28;20176;-82
2021/04/04 14:06:45;;;;;;;2.90;2.60;;;;;;;;;;5055969;28;20638;-81
2021/04/04 14:09:11;;;;;;;4.63;3.70;;;;;;;;;;5056326;28;20180;-81
2021/04/04 14:11:37;;;;;;;7.60;6.50;;;;;;;;;;5055437;28;20174;-81
2021/04/04 14:14:03;;;;;;;8.33;6.07;;;;;;;;;;5056632;28;20227;-82
2021/04/04 14:16:28;;;;;;;4.50;3.40;;;;;;;;;;5055707;28;20198;-81
2021/04/04 14:18:54;;;;;;;5.70;5.13;;;;;;;;;;5056100;28;20611;-81
2021/04/04 14:21:19;;;;;;;4.07;3.23;;;;;;;;;;5056589;28;20258;-81
2021/04/04 14:23:44;;;;;;;20.07;8.53;;;;;;;;;;5055828;28;20175;-82
2021/04/04 14:26:10;;;;;;;11.30;5.87;;;;;;;;;;5056048;28;20180;-82
2021/04/04 14:28:36;;;;;;;16.50;8.20;;;;;;;;;;5055924;28;20198;-82
2021/04/04 14:31:02;;;;;;;18.97;9.10;;;;;;;;;;5055831;28;20178;-82
2021/04/04 14:33:27;;;;;;;20.33;7.70;;;;;;;;;;5055398;28;20172;-82
2021/04/04 14:35:53;;;;;;;5.80;4.10;;;;;;;;;;5055635;28;20188;-81
2021/04/04 14:38:19;;;;;;;13.47;7.00;;;;;;;;;;5055601;28;20180;-81
2021/04/04 14:40:46;;;;;;;6.17;3.87;;;;;;;;;;5054412;28;20176;-82